createdAt,value
2018-12-01T00:00:23.199Z,26.30
2018-12-01T00:01:23.185Z,31.60
2018-12-01T00:02:23.158Z,30.10
2018-12-01T00:03:23.130Z,26.30
2018-12-01T00:04:23.115Z,31.50
2018-12-01T00:05:23.085Z,27.90
2018-12-01T00:06:23.078Z,30.70
2018-12-01T00:07:23.044Z,25.00
2018-12-01T00:08:23.026Z,28.20
2018-12-01T00:09:22.992Z,26.50
2018-12-01T00:10:22.968Z,29.20
2018-12-01T00:11:22.952Z,30.40
2018-12-01T00:12:22.920Z,22.70
2018-12-01T00:13:22.898Z,31.60
2018-12-01T00:14:22.891Z,35.00
2018-12-01T00:15:22.852Z,28.40
2018-12-01T00:16:22.827Z,31.00
2018-12-01T00:17:22.803Z,34.20
2018-12-01T00:18:22.781Z,32.20
2018-12-01T00:19:22.766Z,30.80
2018-12-01T00:20:22.733Z,24.70
2018-12-01T00:21:22.710Z,27.40
2018-12-01T00:22:22.688Z,28.30
2018-12-01T00:23:22.673Z,34.20
2018-12-01T00:24:22.648Z,32.20
2018-12-01T00:25:22.617Z,26.90
2018-12-01T00:26:22.608Z,31.20
2018-12-01T00:27:22.576Z,34.40
2018-12-01T00:28:22.549Z,32.30
2018-12-01T00:29:22.526Z,32.20
2018-12-01T00:30:22.602Z,28.10
2018-12-01T00:31:22.479Z,29.00
2018-12-01T00:32:22.453Z,31.60
2018-12-01T00:33:22.444Z,29.90
2018-12-01T00:34:22.407Z,31.70
2018-12-01T00:35:22.392Z,31.10
2018-12-01T00:36:22.385Z,29.80
2018-12-01T00:37:22.345Z,29.00
2018-12-01T00:38:22.315Z,30.50
2018-12-01T00:39:22.304Z,20.90
2018-12-01T00:40:22.277Z,31.30
2018-12-01T00:41:22.395Z,25.80
2018-12-01T00:42:22.227Z,31.20
2018-12-01T00:43:22.197Z,25.30
2018-12-01T00:44:22.176Z,26.70
2018-12-01T00:45:22.159Z,29.20
2018-12-01T00:46:22.127Z,27.70
2018-12-01T00:47:22.103Z,32.30
2018-12-01T00:48:22.079Z,22.30
2018-12-01T00:49:22.060Z,29.90
2018-12-01T00:50:22.032Z,33.00
2018-12-01T00:51:22.010Z,26.80
2018-12-01T00:52:21.991Z,29.40
2018-12-01T00:53:21.962Z,27.80
2018-12-01T00:54:21.941Z,26.40
2018-12-01T00:55:21.925Z,28.30
2018-12-01T00:56:21.891Z,32.90
2018-12-01T00:57:21.867Z,22.60
2018-12-01T00:58:21.845Z,27.30
2018-12-01T00:59:21.823Z,24.60
2018-12-01T01:00:21.798Z,30.80
2018-12-01T01:01:21.777Z,26.50
2018-12-01T01:02:21.751Z,26.50
2018-12-01T01:03:21.729Z,34.80
2018-12-01T01:04:21.706Z,27.40
2018-12-01T01:05:21.683Z,26.80
2018-12-01T01:06:21.909Z,25.40
2018-12-01T01:07:21.636Z,26.30
2018-12-01T01:08:21.613Z,27.60
2018-12-01T01:09:21.587Z,27.20
2018-12-01T01:10:21.617Z,29.80
2018-12-01T01:11:21.548Z,32.60
2018-12-01T01:12:21.516Z,32.70
2018-12-01T01:13:21.495Z,35.10
2018-12-01T01:14:21.472Z,21.90
2018-12-01T01:15:21.450Z,29.30
2018-12-01T01:16:21.440Z,31.10
2018-12-01T01:17:21.403Z,31.00
2018-12-01T01:18:21.382Z,24.60
2018-12-01T01:19:21.359Z,32.00
2018-12-01T01:20:21.332Z,29.40
2018-12-01T01:21:21.306Z,28.80
2018-12-01T01:22:21.287Z,33.40
2018-12-01T01:23:21.260Z,31.60
2018-12-01T01:24:21.237Z,34.20
2018-12-01T01:25:21.213Z,27.40
2018-12-01T01:26:21.196Z,27.30
2018-12-01T01:27:21.165Z,32.40
2018-12-01T01:28:21.147Z,31.80
2018-12-01T01:29:21.117Z,33.70
2018-12-01T01:30:21.119Z,24.20
2018-12-01T01:31:21.078Z,28.30
2018-12-01T01:32:21.052Z,28.70
2018-12-01T01:33:21.025Z,27.00
2018-12-01T01:34:21.003Z,30.70
2018-12-01T01:35:20.992Z,31.80
2018-12-01T01:36:20.954Z,30.00
2018-12-01T01:37:20.928Z,31.60
2018-12-01T01:38:20.919Z,26.10
2018-12-01T01:39:20.883Z,32.60
2018-12-01T01:40:20.868Z,24.60
2018-12-01T01:41:20.836Z,28.10
2018-12-01T01:42:20.823Z,28.30
2018-12-01T01:43:20.790Z,36.30
2018-12-01T01:44:20.767Z,30.40
2018-12-01T01:45:20.740Z,24.90
2018-12-01T01:46:20.718Z,30.20
2018-12-01T01:47:20.695Z,30.30
2018-12-01T01:48:20.670Z,29.40
2018-12-01T01:49:20.654Z,27.80
2018-12-01T01:50:20.624Z,26.00
2018-12-01T01:51:20.600Z,32.90
2018-12-01T01:52:20.589Z,30.50
2018-12-01T01:53:20.554Z,30.50
2018-12-01T01:54:20.527Z,30.70
2018-12-01T01:55:20.506Z,27.60
2018-12-01T01:56:20.485Z,27.30
2018-12-01T01:57:20.457Z,28.10
2018-12-01T01:58:20.435Z,34.80
2018-12-01T01:59:20.415Z,26.70
2018-12-01T02:00:20.393Z,30.20
2018-12-01T02:01:20.362Z,30.50
2018-12-01T02:02:20.339Z,26.60
2018-12-01T02:03:20.315Z,26.10
2018-12-01T02:04:20.291Z,33.70
2018-12-01T02:05:20.274Z,30.70
2018-12-01T02:06:20.246Z,32.60
2018-12-01T02:07:20.228Z,32.50
2018-12-01T02:08:20.195Z,31.00
2018-12-01T02:09:20.196Z,29.70
2018-12-01T02:10:20.167Z,28.90
2018-12-01T02:11:20.126Z,27.70
2018-12-01T02:12:20.112Z,30.20
2018-12-01T02:13:20.077Z,28.60
2018-12-01T02:14:20.069Z,27.00
2018-12-01T02:15:20.041Z,34.00
2018-12-01T02:16:20.006Z,25.80
2018-12-01T02:17:19.983Z,25.40
2018-12-01T02:18:19.964Z,27.40
2018-12-01T02:19:19.940Z,31.70
2018-12-01T02:20:19.910Z,33.50
2018-12-01T02:21:19.896Z,24.60
2018-12-01T02:22:19.863Z,26.60
2018-12-01T02:23:19.841Z,27.00
2018-12-01T02:24:19.818Z,26.70
2018-12-01T02:25:19.799Z,30.30
2018-12-01T02:26:19.773Z,33.80
2018-12-01T02:27:19.753Z,31.50
2018-12-01T02:28:19.723Z,32.40
2018-12-01T02:29:19.696Z,32.30
2018-12-01T02:30:19.693Z,29.50
2018-12-01T02:31:19.649Z,31.10
2018-12-01T02:32:19.634Z,27.10
2018-12-01T02:33:19.610Z,33.30
2018-12-01T02:34:19.578Z,26.30
2018-12-01T02:35:19.573Z,28.50
2018-12-01T02:36:19.534Z,28.10
2018-12-01T02:37:19.507Z,26.80
2018-12-01T02:38:19.486Z,31.90
2018-12-01T02:39:19.458Z,27.00
2018-12-01T02:40:19.452Z,24.70
2018-12-01T02:41:19.410Z,28.60
2018-12-01T02:42:19.386Z,28.40
2018-12-01T02:43:19.363Z,22.30
2018-12-01T02:44:19.339Z,25.50
2018-12-01T02:45:19.314Z,25.60
2018-12-01T02:46:19.291Z,27.70
2018-12-01T02:47:19.268Z,25.30
2018-12-01T02:48:19.241Z,24.80
2018-12-01T02:49:19.268Z,25.90
2018-12-01T02:50:19.195Z,28.40
2018-12-01T02:51:19.177Z,29.20
2018-12-01T02:52:19.146Z,32.20
2018-12-01T02:53:19.136Z,31.20
2018-12-01T02:54:19.104Z,24.90
2018-12-01T02:55:19.081Z,31.70
2018-12-01T02:56:19.058Z,29.60
2018-12-01T02:57:19.029Z,25.90
2018-12-01T02:58:19.003Z,26.00
2018-12-01T02:59:18.979Z,32.00
2018-12-01T03:00:18.953Z,28.20
2018-12-01T03:01:18.930Z,27.50
2018-12-01T03:02:18.907Z,25.60
2018-12-01T03:03:18.882Z,28.10
2018-12-01T03:04:18.857Z,23.50
2018-12-01T03:05:18.848Z,29.70
2018-12-01T03:06:18.813Z,26.60
2018-12-01T03:07:18.786Z,29.40
2018-12-01T03:08:18.761Z,25.40
2018-12-01T03:09:18.738Z,27.30
2018-12-01T03:10:18.713Z,30.40
2018-12-01T03:11:18.692Z,26.20
2018-12-01T03:12:18.674Z,28.00
2018-12-01T03:13:18.645Z,25.10
2018-12-01T03:14:18.617Z,26.60
2018-12-01T03:15:18.595Z,24.80
2018-12-01T03:16:18.622Z,26.90
2018-12-01T03:17:18.544Z,26.30
2018-12-01T03:18:18.537Z,26.20
2018-12-01T03:19:18.498Z,27.20
2018-12-01T03:20:18.483Z,26.40
2018-12-01T03:21:18.456Z,25.60
2018-12-01T03:22:18.425Z,26.70
2018-12-01T03:23:18.415Z,24.90
2018-12-01T03:24:18.378Z,26.40
2018-12-01T03:25:18.352Z,28.60
2018-12-01T03:26:18.327Z,26.40
2018-12-01T03:27:18.303Z,23.30
2018-12-01T03:28:18.280Z,26.40
2018-12-01T03:29:18.257Z,27.50
2018-12-01T03:30:18.232Z,23.20
2018-12-01T03:31:18.212Z,29.30
2018-12-01T03:32:18.202Z,26.40
2018-12-01T03:33:18.159Z,23.50
2018-12-01T03:34:18.139Z,22.40
2018-12-01T03:35:18.116Z,26.30
2018-12-01T03:36:18.086Z,28.10
2018-12-01T03:37:18.061Z,25.10
2018-12-01T03:38:18.061Z,25.60
2018-12-01T03:39:18.013Z,23.20
2018-12-01T03:40:17.990Z,26.50
2018-12-01T03:41:17.966Z,24.80
2018-12-01T03:42:17.940Z,22.40
2018-12-01T03:43:17.919Z,26.80
2018-12-01T03:44:17.893Z,28.90
2018-12-01T03:45:17.869Z,29.60
2018-12-01T03:46:17.846Z,27.30
2018-12-01T03:47:17.829Z,23.70
2018-12-01T03:48:17.795Z,27.80
2018-12-01T03:49:17.773Z,26.10
2018-12-01T03:50:17.754Z,26.20
2018-12-01T03:51:17.725Z,25.50
2018-12-01T03:52:17.700Z,21.90
2018-12-01T03:53:17.677Z,29.90
2018-12-01T03:54:17.652Z,27.20
2018-12-01T03:55:17.626Z,27.50
2018-12-01T03:56:17.603Z,22.70
2018-12-01T03:57:17.586Z,23.60
2018-12-01T03:58:17.555Z,30.00
2018-12-01T03:59:17.535Z,25.60
2018-12-01T04:00:17.509Z,26.60
2018-12-01T04:01:17.487Z,32.30
2018-12-01T04:02:17.456Z,27.20
2018-12-01T04:03:17.434Z,31.60
2018-12-01T04:04:17.416Z,26.50
2018-12-01T04:05:17.384Z,25.70
2018-12-01T04:06:17.360Z,22.00
2018-12-01T04:07:17.335Z,27.40
2018-12-01T04:08:17.466Z,21.80
2018-12-01T04:09:17.289Z,28.40
2018-12-01T04:10:17.264Z,21.70
2018-12-01T04:11:17.241Z,22.90
2018-12-01T04:12:17.215Z,22.80
2018-12-01T04:13:17.190Z,25.70
2018-12-01T04:14:17.175Z,19.40
2018-12-01T04:15:17.150Z,24.50
2018-12-01T04:16:17.121Z,21.10
2018-12-01T04:17:17.093Z,23.40
2018-12-01T04:18:17.069Z,25.00
2018-12-01T04:19:17.045Z,31.10
2018-12-01T04:20:17.020Z,24.80
2018-12-01T04:21:16.999Z,28.70
2018-12-01T04:22:16.972Z,25.80
2018-12-01T04:23:16.957Z,25.90
2018-12-01T04:24:16.923Z,24.70
2018-12-01T04:25:16.899Z,20.60
2018-12-01T04:26:16.879Z,22.70
2018-12-01T04:27:16.850Z,21.40
2018-12-01T04:28:16.834Z,20.60
2018-12-01T04:29:16.801Z,27.10
2018-12-01T04:30:16.778Z,18.30
2018-12-01T04:31:16.754Z,21.20
2018-12-01T04:32:16.728Z,21.00
2018-12-01T04:33:16.706Z,23.50
2018-12-01T04:34:16.686Z,22.20
2018-12-01T04:35:16.658Z,24.70
2018-12-01T04:36:16.632Z,20.60
2018-12-01T04:37:16.608Z,20.90
2018-12-01T04:38:16.584Z,26.30
2018-12-01T04:39:16.613Z,28.70
2018-12-01T04:40:16.536Z,23.00
2018-12-01T04:41:16.510Z,20.50
2018-12-01T04:42:16.489Z,22.80
2018-12-01T04:43:16.464Z,23.50
2018-12-01T04:44:16.442Z,20.80
2018-12-01T04:45:16.415Z,19.40
2018-12-01T04:46:16.395Z,24.20
2018-12-01T04:47:16.367Z,15.50
2018-12-01T04:48:16.343Z,27.50
2018-12-01T04:49:16.328Z,20.40
2018-12-01T04:50:16.353Z,23.70
2018-12-01T04:51:16.271Z,25.20
2018-12-01T04:52:16.267Z,21.30
2018-12-01T04:53:16.222Z,20.20
2018-12-01T04:54:16.206Z,23.40
2018-12-01T04:55:16.178Z,19.20
2018-12-01T04:56:16.151Z,18.30
2018-12-01T04:57:16.128Z,18.70
2018-12-01T04:58:16.114Z,21.00
2018-12-01T04:59:16.078Z,18.20
2018-12-01T05:00:16.054Z,23.70
2018-12-01T05:01:16.027Z,19.20
2018-12-01T05:02:16.023Z,17.00
2018-12-01T05:03:15.982Z,22.20
2018-12-01T05:04:15.957Z,23.40
2018-12-01T05:05:15.935Z,18.10
2018-12-01T05:06:15.909Z,19.10
2018-12-01T05:07:15.893Z,22.20
2018-12-01T05:08:15.861Z,21.30
2018-12-01T05:09:15.840Z,16.70
2018-12-01T05:10:15.822Z,22.40
2018-12-01T05:11:15.791Z,26.10
2018-12-01T05:12:15.768Z,20.70
2018-12-01T05:13:15.742Z,19.30
2018-12-01T05:14:15.718Z,21.20
2018-12-01T05:15:15.798Z,25.40
2018-12-01T05:16:15.675Z,17.00
2018-12-01T05:17:15.646Z,19.30
2018-12-01T05:18:15.623Z,19.70
2018-12-01T05:19:15.603Z,20.80
2018-12-01T05:20:15.583Z,22.80
2018-12-01T05:21:15.560Z,20.80
2018-12-01T05:22:15.529Z,19.60
2018-12-01T05:23:15.503Z,22.30
2018-12-01T05:24:15.480Z,19.50
2018-12-01T05:25:15.456Z,22.30
2018-12-01T05:26:15.436Z,23.70
2018-12-01T05:27:15.408Z,26.50
2018-12-01T05:28:15.383Z,21.80
2018-12-01T05:29:15.363Z,21.10
2018-12-01T05:30:15.337Z,21.40
2018-12-01T05:31:15.313Z,23.10
2018-12-01T05:32:15.297Z,20.10
2018-12-01T05:33:15.271Z,22.00
2018-12-01T05:34:15.241Z,22.70
2018-12-01T05:35:15.216Z,23.10
2018-12-01T05:36:15.197Z,24.00
2018-12-01T05:37:15.168Z,22.10
2018-12-01T05:38:15.146Z,20.80
2018-12-01T05:39:15.120Z,20.30
2018-12-01T05:40:15.104Z,17.00
2018-12-01T05:41:15.088Z,20.60
2018-12-01T05:42:15.050Z,19.50
2018-12-01T05:43:15.029Z,20.20
2018-12-01T05:44:15.002Z,21.70
2018-12-01T05:45:14.981Z,24.50
2018-12-01T05:46:14.957Z,18.10
2018-12-01T05:47:14.930Z,18.70
2018-12-01T05:48:14.905Z,19.60
2018-12-01T05:49:14.881Z,20.50
2018-12-01T05:50:14.858Z,20.10
2018-12-01T05:51:14.837Z,22.10
2018-12-01T05:52:14.810Z,20.40
2018-12-01T05:53:14.787Z,22.20
2018-12-01T05:54:14.762Z,18.20
2018-12-01T05:55:14.739Z,21.60
2018-12-01T05:56:14.723Z,23.80
2018-12-01T05:57:14.692Z,18.50
2018-12-01T05:58:14.676Z,20.60
2018-12-01T05:59:14.643Z,21.20
2018-12-01T06:00:14.625Z,22.90
2018-12-01T06:01:14.595Z,14.10
2018-12-01T06:02:14.572Z,14.40
2018-12-01T06:03:14.556Z,19.30
2018-12-01T06:04:14.523Z,16.90
2018-12-01T06:05:14.500Z,20.60
2018-12-01T06:06:14.476Z,18.30
2018-12-01T06:07:14.454Z,21.50
2018-12-01T06:08:14.428Z,18.90
2018-12-01T06:09:14.406Z,22.30
2018-12-01T06:10:14.385Z,17.40
2018-12-01T06:11:14.357Z,17.10
2018-12-01T06:12:14.333Z,17.80
2018-12-01T06:13:14.309Z,20.90
2018-12-01T06:14:14.295Z,19.30
2018-12-01T06:15:14.262Z,23.20
2018-12-01T06:16:14.238Z,16.50
2018-12-01T06:17:14.218Z,17.90
2018-12-01T06:18:14.191Z,16.10
2018-12-01T06:19:14.168Z,18.00
2018-12-01T06:20:14.144Z,17.10
2018-12-01T06:21:14.121Z,19.10
2018-12-01T06:22:14.097Z,22.90
2018-12-01T06:23:14.076Z,19.00
2018-12-01T06:24:14.049Z,17.60
2018-12-01T06:25:14.029Z,18.50
2018-12-01T06:26:14.020Z,21.90
2018-12-01T06:27:13.980Z,18.20
2018-12-01T06:28:13.957Z,18.20
2018-12-01T06:29:13.934Z,20.70
2018-12-01T06:30:13.907Z,17.90
2018-12-01T06:31:13.885Z,20.30
2018-12-01T06:32:13.859Z,18.70
2018-12-01T06:33:13.842Z,19.20
2018-12-01T06:34:13.815Z,22.40
2018-12-01T06:35:13.791Z,19.30
2018-12-01T06:36:13.772Z,18.20
2018-12-01T06:37:13.745Z,16.10
2018-12-01T06:38:13.722Z,17.30
2018-12-01T06:39:13.695Z,22.20
2018-12-01T06:40:13.671Z,19.50
2018-12-01T06:41:13.648Z,17.80
2018-12-01T06:42:13.632Z,17.00
2018-12-01T06:43:13.601Z,20.40
2018-12-01T06:44:13.586Z,21.60
2018-12-01T06:45:13.554Z,16.10
2018-12-01T06:46:13.529Z,19.70
2018-12-01T06:47:13.514Z,19.00
2018-12-01T06:48:13.483Z,20.70
2018-12-01T06:49:13.558Z,17.90
2018-12-01T06:50:13.443Z,20.70
2018-12-01T06:51:13.412Z,17.20
2018-12-01T06:52:13.386Z,16.50
2018-12-01T06:53:13.362Z,21.80
2018-12-01T06:54:13.341Z,15.20
2018-12-01T06:55:13.318Z,17.00
2018-12-01T06:56:13.294Z,19.40
2018-12-01T06:57:13.269Z,20.40
2018-12-01T06:58:13.248Z,20.30
2018-12-01T06:59:13.232Z,19.60
2018-12-01T07:00:13.210Z,24.60
2018-12-01T07:01:13.183Z,18.00
2018-12-01T07:02:13.160Z,20.10
2018-12-01T07:03:13.129Z,21.70
2018-12-01T07:04:13.111Z,18.20
2018-12-01T07:05:13.092Z,19.20
2018-12-01T07:06:13.057Z,19.80
2018-12-01T07:07:13.035Z,21.80
2018-12-01T07:08:13.009Z,20.00
2018-12-01T07:09:12.992Z,17.80
2018-12-01T07:10:12.963Z,19.50
2018-12-01T07:11:12.947Z,17.10
2018-12-01T07:12:12.917Z,17.40
2018-12-01T07:13:12.891Z,15.20
2018-12-01T07:14:12.868Z,20.10
2018-12-01T07:15:12.844Z,19.00
2018-12-01T07:16:12.829Z,17.90
2018-12-01T07:17:12.797Z,19.30
2018-12-01T07:18:12.780Z,18.90
2018-12-01T07:19:12.752Z,21.50
2018-12-01T07:20:12.735Z,18.50
2018-12-01T07:21:12.702Z,19.50
2018-12-01T07:22:12.707Z,17.90
2018-12-01T07:23:12.656Z,24.50
2018-12-01T07:24:12.633Z,15.10
2018-12-01T07:25:12.709Z,19.70
2018-12-01T07:26:12.588Z,17.50
2018-12-01T07:27:12.559Z,20.80
2018-12-01T07:28:12.539Z,19.90
2018-12-01T07:29:12.522Z,18.50
2018-12-01T07:30:12.497Z,17.90
2018-12-01T07:31:12.487Z,18.40
2018-12-01T07:32:12.443Z,14.40
2018-12-01T07:33:12.420Z,17.70
2018-12-01T07:34:12.397Z,15.90
2018-12-01T07:35:12.381Z,18.20
2018-12-01T07:36:12.349Z,19.10
2018-12-01T07:37:12.326Z,24.50
2018-12-01T07:38:12.303Z,18.30
2018-12-01T07:39:12.278Z,16.60
2018-12-01T07:40:12.261Z,22.30
2018-12-01T07:41:12.240Z,16.40
2018-12-01T07:42:12.215Z,18.40
2018-12-01T07:43:12.186Z,11.90
2018-12-01T07:44:12.160Z,17.10
2018-12-01T07:45:12.140Z,22.20
2018-12-01T07:46:12.129Z,16.80
2018-12-01T07:47:12.092Z,21.60
2018-12-01T07:48:12.066Z,23.40
2018-12-01T07:49:12.048Z,20.10
2018-12-01T07:50:12.026Z,17.40
2018-12-01T07:51:11.999Z,19.00
2018-12-01T07:52:11.979Z,14.30
2018-12-01T07:53:11.957Z,18.20
2018-12-01T07:54:11.925Z,19.30
2018-12-01T07:55:11.901Z,17.20
2018-12-01T07:56:11.886Z,18.10
2018-12-01T07:57:11.857Z,21.30
2018-12-01T07:58:11.988Z,17.70
2018-12-01T07:59:11.813Z,15.50
2018-12-01T08:00:11.783Z,13.50
2018-12-01T08:01:11.761Z,18.90
2018-12-01T08:02:11.741Z,20.60
2018-12-01T08:03:11.718Z,18.20
2018-12-01T08:04:11.703Z,18.60
2018-12-01T08:05:11.669Z,20.80
2018-12-01T08:06:11.647Z,19.00
2018-12-01T08:07:11.625Z,15.90
2018-12-01T08:08:11.607Z,17.00
2018-12-01T08:09:11.582Z,18.20
2018-12-01T08:10:11.562Z,17.70
2018-12-01T08:11:11.530Z,12.20
2018-12-01T08:12:11.513Z,15.30
2018-12-01T08:13:11.481Z,16.90
2018-12-01T08:14:11.465Z,20.80
2018-12-01T08:15:11.437Z,21.20
2018-12-01T08:16:11.425Z,18.80
2018-12-01T08:17:11.389Z,21.90
2018-12-01T08:18:11.366Z,20.30
2018-12-01T08:19:11.343Z,17.10
2018-12-01T08:20:11.420Z,21.80
2018-12-01T08:21:11.296Z,13.50
2018-12-01T08:22:11.286Z,16.90
2018-12-01T08:23:11.304Z,16.20
2018-12-01T08:24:11.230Z,14.80
2018-12-01T08:25:11.215Z,16.00
2018-12-01T08:26:11.182Z,16.50
2018-12-01T08:27:11.162Z,16.10
2018-12-01T08:28:11.136Z,18.10
2018-12-01T08:29:11.113Z,14.30
2018-12-01T08:30:11.095Z,20.10
2018-12-01T08:31:11.075Z,18.00
2018-12-01T08:32:11.043Z,18.90
2018-12-01T08:33:11.022Z,20.60
2018-12-01T08:34:11.002Z,19.00
2018-12-01T08:35:10.975Z,13.20
2018-12-01T08:36:10.954Z,15.40
2018-12-01T08:37:10.931Z,15.70
2018-12-01T08:38:10.912Z,19.50
2018-12-01T08:39:10.884Z,16.00
2018-12-01T08:40:10.860Z,19.20
2018-12-01T08:41:10.844Z,15.30
2018-12-01T08:42:10.815Z,19.90
2018-12-01T08:43:10.802Z,14.60
2018-12-01T08:44:10.769Z,23.50
2018-12-01T08:45:10.744Z,21.10
2018-12-01T08:46:10.732Z,13.30
2018-12-01T08:47:10.702Z,15.40
2018-12-01T08:48:10.693Z,21.70
2018-12-01T08:49:10.655Z,21.40
2018-12-01T08:50:10.639Z,18.50
2018-12-01T08:51:10.612Z,17.10
2018-12-01T08:52:10.589Z,19.50
2018-12-01T08:53:10.572Z,21.50
2018-12-01T08:54:10.543Z,18.80
2018-12-01T08:55:10.520Z,18.70
2018-12-01T08:56:10.552Z,17.30
2018-12-01T08:57:10.473Z,17.10
2018-12-01T08:58:10.450Z,18.80
2018-12-01T08:59:10.438Z,15.30
2018-12-01T09:00:10.406Z,13.50
2018-12-01T09:01:10.384Z,19.30
2018-12-01T09:02:10.365Z,17.70
2018-12-01T09:03:10.339Z,14.50
2018-12-01T09:04:10.324Z,20.00
2018-12-01T09:05:10.297Z,17.30
2018-12-01T09:06:10.272Z,18.70
2018-12-01T09:07:10.250Z,14.70
2018-12-01T09:08:10.237Z,16.20
2018-12-01T09:09:10.231Z,16.50
2018-12-01T09:10:10.194Z,15.10
2018-12-01T09:11:10.173Z,14.10
2018-12-01T09:12:10.140Z,19.40
2018-12-01T09:13:10.118Z,17.80
2018-12-01T09:14:10.095Z,19.30
2018-12-01T09:15:10.078Z,14.80
2018-12-01T09:16:10.051Z,13.90
2018-12-01T09:17:10.028Z,15.70
2018-12-01T09:18:10.007Z,16.40
2018-12-01T09:19:09.986Z,21.20
2018-12-01T09:20:09.965Z,18.70
2018-12-01T09:21:09.999Z,17.00
2018-12-01T09:22:09.925Z,16.70
2018-12-01T09:23:09.898Z,15.30
2018-12-01T09:24:09.877Z,22.20
2018-12-01T09:25:09.858Z,19.30
2018-12-01T09:26:09.833Z,17.00
2018-12-01T09:27:09.816Z,21.90
2018-12-01T09:28:09.796Z,16.40
2018-12-01T09:29:09.767Z,17.60
2018-12-01T09:30:09.762Z,12.70
2018-12-01T09:31:09.728Z,17.00
2018-12-01T09:32:09.760Z,14.00
2018-12-01T09:33:09.682Z,17.10
2018-12-01T09:34:09.658Z,13.70
2018-12-01T09:35:09.642Z,19.50
2018-12-01T09:36:09.615Z,14.90
2018-12-01T09:37:09.594Z,15.50
2018-12-01T09:38:09.572Z,17.10
2018-12-01T09:39:09.551Z,14.10
2018-12-01T09:40:09.529Z,13.50
2018-12-01T09:41:09.531Z,16.10
2018-12-01T09:42:09.486Z,20.30
2018-12-01T09:43:09.466Z,14.40
2018-12-01T09:44:09.444Z,17.10
2018-12-01T09:45:09.422Z,15.20
2018-12-01T09:46:09.400Z,15.60
2018-12-01T09:47:09.383Z,16.10
2018-12-01T09:48:09.371Z,14.90
2018-12-01T09:49:09.375Z,22.20
2018-12-01T09:50:09.330Z,16.30
2018-12-01T09:51:09.296Z,17.40
2018-12-01T09:52:09.272Z,15.70
2018-12-01T09:53:09.253Z,18.40
2018-12-01T09:54:09.334Z,16.30
2018-12-01T09:55:09.215Z,16.30
2018-12-01T09:56:09.185Z,17.50
2018-12-01T09:57:09.173Z,19.10
2018-12-01T09:58:09.164Z,22.30
2018-12-01T09:59:09.139Z,18.80
2018-12-01T10:00:09.100Z,16.80
2018-12-01T10:01:09.092Z,13.50
2018-12-01T10:02:09.058Z,17.50
2018-12-01T10:03:09.050Z,18.40
2018-12-01T10:04:09.020Z,18.70
2018-12-01T10:05:09.008Z,19.40
2018-12-01T10:06:08.972Z,14.80
2018-12-01T10:07:08.961Z,14.20
2018-12-01T10:08:08.978Z,16.50
2018-12-01T10:09:08.916Z,18.10
2018-12-01T10:10:08.886Z,17.30
2018-12-01T10:11:08.866Z,15.20
2018-12-01T10:12:08.849Z,20.80
2018-12-01T10:13:08.829Z,16.00
2018-12-01T10:14:08.805Z,15.50
2018-12-01T10:15:08.781Z,21.90
2018-12-01T10:16:08.759Z,12.60
2018-12-01T10:17:08.739Z,16.60
2018-12-01T10:18:08.717Z,15.80
2018-12-01T10:19:08.705Z,18.00
2018-12-01T10:20:08.680Z,12.90
2018-12-01T10:21:08.656Z,14.00
2018-12-01T10:22:08.633Z,15.90
2018-12-01T10:23:08.611Z,16.00
2018-12-01T10:24:08.608Z,12.40
2018-12-01T10:25:08.571Z,15.30
2018-12-01T10:26:08.552Z,16.90
2018-12-01T10:27:08.540Z,17.80
2018-12-01T10:28:08.517Z,23.60
2018-12-01T10:29:08.491Z,15.90
2018-12-01T10:30:08.521Z,14.90
2018-12-01T10:31:08.446Z,12.90
2018-12-01T10:32:08.424Z,11.00
2018-12-01T10:33:08.407Z,17.90
2018-12-01T10:34:08.380Z,13.10
2018-12-01T10:35:08.359Z,16.30
2018-12-01T10:36:08.343Z,16.20
2018-12-01T10:37:08.324Z,17.80
2018-12-01T10:38:08.304Z,15.50
2018-12-01T10:39:08.283Z,16.90
2018-12-01T10:40:08.258Z,10.30
2018-12-01T10:41:08.235Z,10.30
2018-12-01T10:42:08.214Z,15.30
2018-12-01T10:43:08.208Z,15.50
2018-12-01T10:44:08.174Z,13.00
2018-12-01T10:45:08.155Z,12.60
2018-12-01T10:46:08.134Z,14.40
2018-12-01T10:47:08.128Z,13.80
2018-12-01T10:48:08.101Z,15.60
2018-12-01T10:49:08.073Z,12.10
2018-12-01T10:50:08.051Z,12.70
2018-12-01T10:51:08.035Z,12.10
2018-12-01T10:52:08.010Z,16.00
2018-12-01T10:53:08.002Z,16.40
2018-12-01T10:54:07.979Z,11.50
2018-12-01T10:55:07.951Z,15.50
2018-12-01T10:56:07.926Z,14.70
2018-12-01T10:57:07.905Z,14.00
2018-12-01T10:58:07.893Z,16.30
2018-12-01T10:59:07.864Z,15.20
2018-12-01T11:00:07.903Z,14.90
2018-12-01T11:01:07.825Z,13.90
2018-12-01T11:02:07.808Z,11.80
2018-12-01T11:03:07.810Z,13.10
2018-12-01T11:04:07.765Z,15.30
2018-12-01T11:05:07.748Z,14.90
2018-12-01T11:06:07.725Z,13.60
2018-12-01T11:07:07.700Z,15.50
2018-12-01T11:08:07.694Z,12.20
2018-12-01T11:09:07.672Z,13.10
2018-12-01T11:10:07.638Z,12.80
2018-12-01T11:11:07.620Z,14.40
2018-12-01T11:12:07.595Z,15.10
2018-12-01T11:13:07.576Z,15.50
2018-12-01T11:14:07.556Z,11.10
2018-12-01T11:15:07.542Z,12.20
2018-12-01T11:16:07.513Z,16.50
2018-12-01T11:17:07.503Z,13.20
2018-12-01T11:18:07.472Z,14.50
2018-12-01T11:19:07.451Z,12.30
2018-12-01T11:20:07.432Z,19.30
2018-12-01T11:21:07.413Z,17.40
2018-12-01T11:22:07.394Z,13.30
2018-12-01T11:23:07.371Z,14.70
2018-12-01T11:24:07.349Z,16.20
2018-12-01T11:25:07.344Z,16.20
2018-12-01T11:26:07.321Z,12.10
2018-12-01T11:27:07.297Z,11.00
2018-12-01T11:28:07.275Z,16.60
2018-12-01T11:29:07.248Z,8.30
2018-12-01T11:30:07.228Z,12.90
2018-12-01T11:31:07.213Z,10.60
2018-12-01T11:32:07.185Z,15.50
2018-12-01T11:33:07.193Z,15.10
2018-12-01T11:34:07.153Z,14.70
2018-12-01T11:35:07.124Z,12.40
2018-12-01T11:36:07.107Z,11.40
2018-12-01T11:37:07.084Z,12.90
2018-12-01T11:38:07.079Z,12.70
2018-12-01T11:39:07.040Z,12.70
2018-12-01T11:40:07.022Z,13.30
2018-12-01T11:41:07.002Z,15.30
2018-12-01T11:42:06.992Z,9.10
2018-12-01T11:43:06.963Z,10.50
2018-12-01T11:44:07.173Z,12.50
2018-12-01T11:45:06.922Z,16.40
2018-12-01T11:46:06.901Z,11.60
2018-12-01T11:47:06.878Z,14.30
2018-12-01T11:48:06.862Z,14.00
2018-12-01T11:49:06.837Z,10.00
2018-12-01T11:50:06.820Z,12.70
2018-12-01T11:51:06.807Z,15.30
2018-12-01T11:52:06.829Z,15.90
2018-12-01T11:53:06.763Z,16.40
2018-12-01T11:54:06.742Z,12.50
2018-12-01T11:55:06.717Z,13.90
2018-12-01T11:56:06.697Z,13.60
2018-12-01T11:57:06.676Z,11.50
2018-12-01T11:58:06.655Z,15.10
2018-12-01T11:59:06.632Z,15.90
2018-12-01T12:00:06.628Z,14.50
2018-12-01T12:01:06.595Z,14.30
2018-12-01T12:02:06.580Z,15.00
2018-12-01T12:03:06.549Z,16.50
2018-12-01T12:04:06.534Z,13.80
2018-12-01T12:05:06.507Z,13.30
2018-12-01T12:06:06.494Z,12.10
2018-12-01T12:07:06.471Z,17.20
2018-12-01T12:08:06.451Z,15.40
2018-12-01T12:09:06.428Z,12.60
2018-12-01T12:10:06.407Z,13.70
2018-12-01T12:11:06.386Z,16.70
2018-12-01T12:12:06.369Z,12.70
2018-12-01T12:13:06.343Z,13.10
2018-12-01T12:14:06.323Z,11.70
2018-12-01T12:15:06.302Z,14.60
2018-12-01T12:16:06.282Z,20.10
2018-12-01T12:17:06.261Z,12.50
2018-12-01T12:18:06.247Z,14.90
2018-12-01T12:19:06.230Z,12.20
2018-12-01T12:20:06.196Z,16.80
2018-12-01T12:21:06.226Z,9.40
2018-12-01T12:22:06.158Z,17.10
2018-12-01T12:23:06.135Z,11.00
2018-12-01T12:24:06.123Z,14.20
2018-12-01T12:25:06.101Z,11.30
2018-12-01T12:26:06.086Z,14.50
2018-12-01T12:27:06.067Z,11.80
2018-12-01T12:28:06.030Z,10.30
2018-12-01T12:29:06.023Z,12.80
2018-12-01T12:30:05.990Z,12.10
2018-12-01T12:31:05.982Z,12.90
2018-12-01T12:32:05.947Z,16.40
2018-12-01T12:33:05.929Z,15.50
2018-12-01T12:34:05.924Z,13.00
2018-12-01T12:35:05.891Z,11.90
2018-12-01T12:36:05.864Z,14.00
2018-12-01T12:37:05.845Z,12.40
2018-12-01T12:38:05.823Z,9.80
2018-12-01T12:39:05.821Z,14.70
2018-12-01T12:40:05.787Z,9.90
2018-12-01T12:41:05.769Z,9.10
2018-12-01T12:42:05.739Z,10.60
2018-12-01T12:43:05.718Z,8.30
2018-12-01T12:44:05.696Z,11.00
2018-12-01T12:45:05.685Z,9.80
2018-12-01T12:46:05.655Z,10.90
2018-12-01T12:47:05.640Z,10.40
2018-12-01T12:48:05.623Z,11.90
2018-12-01T12:49:05.592Z,14.80
2018-12-01T12:50:05.576Z,14.30
2018-12-01T12:51:05.552Z,9.20
2018-12-01T12:52:05.538Z,10.90
2018-12-01T12:53:05.510Z,9.70